sensor_id;sensor_type;location;lat;lon;timestamp;P1;durP1;ratioP1;P2;durP2;ratioP2
4089;SDS011;2059;48.538;12.146;2022-10-31T00:03:17;9.90;;;8.80;;
4089;SDS011;2059;48.538;12.146;2022-10-31T00:08:19;10.33;;;9.07;;
4089;SDS011;2059;48.538;12.146;2022-10-31T00:13:21;11.90;;;8.30;;
4089;SDS011;2059;48.538;12.146;2022-10-31T00:18:24;13.30;;;8.50;;
4089;SDS011;2059;48.538;12.146;2022-10-31T00:23:26;14.43;;;10.37;;
4089;SDS011;2059;48.538;12.146;2022-10-31T00:28:28;16.80;;;11.90;;
4089;SDS011;2059;48.538;12.146;2022-10-31T00:33:34;15.03;;;9.23;;
4089;SDS011;2059;48.538;12.146;2022-10-31T00:38:37;13.30;;;11.37;;
4089;SDS011;2059;48.538;12.146;2022-10-31T00:43:39;12.47;;;11.17;;
4089;SDS011;2059;48.538;12.146;2022-10-31T00:48:43;16.07;;;11.40;;
4089;SDS011;2059;48.538;12.146;2022-10-31T00:53:45;16.93;;;11.90;;
4089;SDS011;2059;48.538;12.146;2022-10-31T00:58:47;14.50;;;10.47;;
4089;SDS011;2059;48.538;12.146;2022-10-31T01:03:50;12.13;;;10.90;;
4089;SDS011;2059;48.538;12.146;2022-10-31T01:08:52;14.40;;;11.90;;
4089;SDS011;2059;48.538;12.146;2022-10-31T01:13:54;14.40;;;11.23;;
4089;SDS011;2059;48.538;12.146;2022-10-31T01:18:57;13.83;;;12.03;;
4089;SDS011;2059;48.538;12.146;2022-10-31T01:23:59;13.93;;;12.43;;
4089;SDS011;2059;48.538;12.146;2022-10-31T01:29:03;14.63;;;12.20;;
4089;SDS011;2059;48.538;12.146;2022-10-31T01:34:08;16.30;;;12.60;;
4089;SDS011;2059;48.538;12.146;2022-10-31T01:39:15;16.37;;;12.83;;
4089;SDS011;2059;48.538;12.146;2022-10-31T01:50:02;20.73;;;9.90;;
4089;SDS011;2059;48.538;12.146;2022-10-31T01:55:08;13.70;;;10.90;;
4089;SDS011;2059;48.538;12.146;2022-10-31T02:00:13;14.80;;;10.60;;
4089;SDS011;2059;48.538;12.146;2022-10-31T02:05:18;15.97;;;10.50;;
4089;SDS011;2059;48.538;12.146;2022-10-31T02:10:23;13.70;;;10.57;;
4089;SDS011;2059;48.538;12.146;2022-10-31T02:15:25;13.00;;;10.87;;
4089;SDS011;2059;48.538;12.146;2022-10-31T02:20:29;10.33;;;9.30;;
4089;SDS011;2059;48.538;12.146;2022-10-31T02:25:45;12.33;;;7.80;;
4089;SDS011;2059;48.538;12.146;2022-10-31T02:31:18;8.90;;;7.07;;
4089;SDS011;2059;48.538;12.146;2022-10-31T02:36:32;7.07;;;6.47;;
4089;SDS011;2059;48.538;12.146;2022-10-31T02:41:44;7.67;;;6.77;;
4089;SDS011;2059;48.538;12.146;2022-10-31T02:46:52;7.10;;;6.50;;
4089;SDS011;2059;48.538;12.146;2022-10-31T02:51:58;7.93;;;7.17;;
4089;SDS011;2059;48.538;12.146;2022-10-31T02:57:01;8.27;;;6.83;;
4089;SDS011;2059;48.538;12.146;2022-10-31T03:02:11;13.17;;;7.57;;
4089;SDS011;2059;48.538;12.146;2022-10-31T03:07:29;9.63;;;6.63;;
4089;SDS011;2059;48.538;12.146;2022-10-31T03:12:38;8.17;;;7.40;;
4089;SDS011;2059;48.538;12.146;2022-10-31T03:17:47;9.87;;;7.40;;
4089;SDS011;2059;48.538;12.146;2022-10-31T03:22:55;10.30;;;9.20;;
4089;SDS011;2059;48.538;12.146;2022-10-31T03:27:57;10.20;;;9.30;;
4089;SDS011;2059;48.538;12.146;2022-10-31T03:33:04;7.40;;;6.73;;
4089;SDS011;2059;48.538;12.146;2022-10-31T03:38:10;9.57;;;8.70;;
4089;SDS011;2059;48.538;12.146;2022-10-31T03:43:15;6.47;;;5.97;;
4089;SDS011;2059;48.538;12.146;2022-10-31T03:48:21;12.13;;;9.27;;
4089;SDS011;2059;48.538;12.146;2022-10-31T03:53:24;6.63;;;6.13;;
4089;SDS011;2059;48.538;12.146;2022-10-31T03:58:32;6.87;;;6.37;;
4089;SDS011;2059;48.538;12.146;2022-10-31T04:03:40;7.40;;;6.80;;
4089;SDS011;2059;48.538;12.146;2022-10-31T04:08:44;8.53;;;7.50;;
4089;SDS011;2059;48.538;12.146;2022-10-31T04:13:50;7.17;;;5.70;;
4089;SDS011;2059;48.538;12.146;2022-10-31T04:18:55;5.87;;;5.43;;
4089;SDS011;2059;48.538;12.146;2022-10-31T04:23:57;8.00;;;7.40;;
4089;SDS011;2059;48.538;12.146;2022-10-31T04:28:59;7.77;;;7.17;;
4089;SDS011;2059;48.538;12.146;2022-10-31T04:34:02;6.80;;;6.20;;
4089;SDS011;2059;48.538;12.146;2022-10-31T04:39:04;6.30;;;5.87;;
4089;SDS011;2059;48.538;12.146;2022-10-31T04:44:06;8.80;;;8.00;;
4089;SDS011;2059;48.538;12.146;2022-10-31T04:49:09;6.23;;;5.83;;
4089;SDS011;2059;48.538;12.146;2022-10-31T04:54:11;5.70;;;5.30;;
4089;SDS011;2059;48.538;12.146;2022-10-31T04:59:13;7.50;;;6.90;;
4089;SDS011;2059;48.538;12.146;2022-10-31T05:04:16;6.57;;;6.07;;
4089;SDS011;2059;48.538;12.146;2022-10-31T05:09:18;7.10;;;6.60;;
4089;SDS011;2059;48.538;12.146;2022-10-31T05:14:20;7.03;;;6.53;;
4089;SDS011;2059;48.538;12.146;2022-10-31T05:19:23;10.43;;;9.57;;
4089;SDS011;2059;48.538;12.146;2022-10-31T05:24:25;9.07;;;8.37;;
4089;SDS011;2059;48.538;12.146;2022-10-31T05:29:27;6.63;;;6.10;;
4089;SDS011;2059;48.538;12.146;2022-10-31T05:34:34;5.80;;;5.40;;
4089;SDS011;2059;48.538;12.146;2022-10-31T05:39:36;6.63;;;6.00;;
4089;SDS011;2059;48.538;12.146;2022-10-31T05:44:38;6.10;;;5.70;;
4089;SDS011;2059;48.538;12.146;2022-10-31T05:49:41;6.10;;;5.63;;
4089;SDS011;2059;48.538;12.146;2022-10-31T05:54:43;8.30;;;6.20;;
4089;SDS011;2059;48.538;12.146;2022-10-31T05:59:45;6.57;;;6.07;;
4089;SDS011;2059;48.538;12.146;2022-10-31T06:04:48;6.63;;;6.03;;
4089;SDS011;2059;48.538;12.146;2022-10-31T06:09:50;6.50;;;6.00;;
4089;SDS011;2059;48.538;12.146;2022-10-31T06:14:52;8.30;;;6.03;;
4089;SDS011;2059;48.538;12.146;2022-10-31T06:19:55;6.57;;;6.03;;
4089;SDS011;2059;48.538;12.146;2022-10-31T06:24:57;6.57;;;5.83;;
4089;SDS011;2059;48.538;12.146;2022-10-31T06:29:59;6.17;;;5.67;;
4089;SDS011;2059;48.538;12.146;2022-10-31T06:35:02;6.93;;;6.20;;
4089;SDS011;2059;48.538;12.146;2022-10-31T06:40:05;7.30;;;6.60;;
4089;SDS011;2059;48.538;12.146;2022-10-31T06:45:07;6.67;;;6.00;;
4089;SDS011;2059;48.538;12.146;2022-10-31T06:50:11;7.07;;;6.47;;
4089;SDS011;2059;48.538;12.146;2022-10-31T06:55:13;6.83;;;6.33;;
4089;SDS011;2059;48.538;12.146;2022-10-31T07:00:15;7.40;;;6.80;;
4089;SDS011;2059;48.538;12.146;2022-10-31T07:05:18;6.93;;;6.43;;
4089;SDS011;2059;48.538;12.146;2022-10-31T07:10:20;8.00;;;7.30;;
4089;SDS011;2059;48.538;12.146;2022-10-31T07:15:22;15.17;;;8.00;;
4089;SDS011;2059;48.538;12.146;2022-10-31T07:20:26;8.87;;;7.60;;
4089;SDS011;2059;48.538;12.146;2022-10-31T07:25:28;9.53;;;7.77;;
4089;SDS011;2059;48.538;12.146;2022-10-31T07:30:30;8.70;;;7.83;;
4089;SDS011;2059;48.538;12.146;2022-10-31T07:35:33;17.73;;;8.30;;
4089;SDS011;2059;48.538;12.146;2022-10-31T07:40:35;8.73;;;7.83;;
4089;SDS011;2059;48.538;12.146;2022-10-31T07:45:37;9.80;;;7.70;;
4089;SDS011;2059;48.538;12.146;2022-10-31T07:50:40;14.10;;;8.93;;
4089;SDS011;2059;48.538;12.146;2022-10-31T07:55:42;9.40;;;8.20;;
4089;SDS011;2059;48.538;12.146;2022-10-31T08:00:45;16.80;;;9.90;;
4089;SDS011;2059;48.538;12.146;2022-10-31T08:05:49;15.87;;;10.43;;
4089;SDS011;2059;48.538;12.146;2022-10-31T08:10:51;15.40;;;11.27;;
4089;SDS011;2059;48.538;12.146;2022-10-31T08:15:53;13.17;;;11.10;;
4089;SDS011;2059;48.538;12.146;2022-10-31T08:20:57;18.13;;;11.80;;
4089;SDS011;2059;48.538;12.146;2022-10-31T08:25:59;17.57;;;11.60;;
4089;SDS011;2059;48.538;12.146;2022-10-31T08:31:01;18.70;;;11.30;;
4089;SDS011;2059;48.538;12.146;2022-10-31T08:36:04;11.13;;;9.80;;
4089;SDS011;2059;48.538;12.146;2022-10-31T08:41:06;13.97;;;10.80;;
4089;SDS011;2059;48.538;12.146;2022-10-31T08:46:08;14.53;;;11.50;;
4089;SDS011;2059;48.538;12.146;2022-10-31T08:51:11;10.03;;;8.93;;
4089;SDS011;2059;48.538;12.146;2022-10-31T08:56:13;12.30;;;10.30;;
4089;SDS011;2059;48.538;12.146;2022-10-31T09:01:15;18.23;;;11.80;;
4089;SDS011;2059;48.538;12.146;2022-10-31T09:06:18;24.40;;;14.70;;
4089;SDS011;2059;48.538;12.146;2022-10-31T09:11:20;46.10;;;22.67;;
4089;SDS011;2059;48.538;12.146;2022-10-31T09:16:22;55.97;;;26.10;;
4089;SDS011;2059;48.538;12.146;2022-10-31T09:21:25;76.73;;;32.00;;
4089;SDS011;2059;48.538;12.146;2022-10-31T09:26:27;79.40;;;33.77;;
4089;SDS011;2059;48.538;12.146;2022-10-31T09:31:29;74.23;;;31.77;;
4089;SDS011;2059;48.538;12.146;2022-10-31T09:36:32;48.97;;;25.37;;
4089;SDS011;2059;48.538;12.146;2022-10-31T09:41:40;34.03;;;21.90;;
4089;SDS011;2059;48.538;12.146;2022-10-31T09:46:54;18.27;;;15.70;;
4089;SDS011;2059;48.538;12.146;2022-10-31T09:52:04;28.97;;;22.37;;
4089;SDS011;2059;48.538;12.146;2022-10-31T09:57:15;33.20;;;23.20;;
4089;SDS011;2059;48.538;12.146;2022-10-31T10:02:23;31.23;;;22.70;;
4089;SDS011;2059;48.538;12.146;2022-10-31T10:07:35;39.07;;;27.30;;
4089;SDS011;2059;48.538;12.146;2022-10-31T10:12:59;34.30;;;24.53;;
4089;SDS011;2059;48.538;12.146;2022-10-31T10:18:21;24.90;;;20.47;;
4089;SDS011;2059;48.538;12.146;2022-10-31T10:23:34;28.60;;;21.90;;
4089;SDS011;2059;48.538;12.146;2022-10-31T10:28:43;24.03;;;18.20;;
4089;SDS011;2059;48.538;12.146;2022-10-31T10:33:52;28.40;;;21.03;;
4089;SDS011;2059;48.538;12.146;2022-10-31T10:39:04;27.43;;;21.77;;
4089;SDS011;2059;48.538;12.146;2022-10-31T10:44:12;23.03;;;18.27;;
4089;SDS011;2059;48.538;12.146;2022-10-31T10:49:16;27.03;;;17.63;;
4089;SDS011;2059;48.538;12.146;2022-10-31T10:59:55;15.63;;;11.10;;
4089;SDS011;2059;48.538;12.146;2022-10-31T11:04:58;11.83;;;10.73;;
4089;SDS011;2059;48.538;12.146;2022-10-31T11:10:04;11.67;;;10.67;;
4089;SDS011;2059;48.538;12.146;2022-10-31T11:15:19;11.23;;;10.23;;
4089;SDS011;2059;48.538;12.146;2022-10-31T11:20:25;12.67;;;11.47;;
4089;SDS011;2059;48.538;12.146;2022-10-31T11:25:31;12.03;;;10.83;;
4089;SDS011;2059;48.538;12.146;2022-10-31T11:30:45;12.80;;;11.60;;
4089;SDS011;2059;48.538;12.146;2022-10-31T11:35:48;13.43;;;12.13;;
4089;SDS011;2059;48.538;12.146;2022-10-31T11:40:52;13.43;;;12.23;;
4089;SDS011;2059;48.538;12.146;2022-10-31T11:45:57;13.40;;;12.20;;
4089;SDS011;2059;48.538;12.146;2022-10-31T11:50:59;16.17;;;14.47;;
4089;SDS011;2059;48.538;12.146;2022-10-31T11:56:02;18.17;;;16.30;;
4089;SDS011;2059;48.538;12.146;2022-10-31T12:01:18;20.03;;;17.10;;
4089;SDS011;2059;48.538;12.146;2022-10-31T12:06:27;37.03;;;26.50;;
4089;SDS011;2059;48.538;12.146;2022-10-31T12:11:36;31.40;;;24.20;;
4089;SDS011;2059;48.538;12.146;2022-10-31T12:16:46;30.67;;;24.10;;
4089;SDS011;2059;48.538;12.146;2022-10-31T12:21:58;36.63;;;26.93;;
4089;SDS011;2059;48.538;12.146;2022-10-31T12:27:10;36.37;;;28.47;;
4089;SDS011;2059;48.538;12.146;2022-10-31T12:32:24;37.33;;;29.33;;
4089;SDS011;2059;48.538;12.146;2022-10-31T12:37:38;36.40;;;27.37;;
4089;SDS011;2059;48.538;12.146;2022-10-31T12:42:50;33.67;;;23.93;;
4089;SDS011;2059;48.538;12.146;2022-10-31T12:53:57;28.70;;;22.40;;
4089;SDS011;2059;48.538;12.146;2022-10-31T12:59:20;27.50;;;19.13;;
4089;SDS011;2059;48.538;12.146;2022-10-31T13:04:35;20.97;;;17.07;;
4089;SDS011;2059;48.538;12.146;2022-10-31T13:09:45;18.93;;;13.70;;
4089;SDS011;2059;48.538;12.146;2022-10-31T13:14:52;13.87;;;12.57;;
4089;SDS011;2059;48.538;12.146;2022-10-31T13:19:57;13.83;;;12.27;;
4089;SDS011;2059;48.538;12.146;2022-10-31T13:25:15;14.00;;;12.70;;
4089;SDS011;2059;48.538;12.146;2022-10-31T13:30:21;14.87;;;13.07;;
4089;SDS011;2059;48.538;12.146;2022-10-31T13:35:26;15.97;;;13.20;;
4089;SDS011;2059;48.538;12.146;2022-10-31T13:40:37;18.73;;;15.53;;
4089;SDS011;2059;48.538;12.146;2022-10-31T13:45:48;36.40;;;28.20;;
4089;SDS011;2059;48.538;12.146;2022-10-31T13:50:55;38.67;;;33.37;;
4089;SDS011;2059;48.538;12.146;2022-10-31T13:56:03;31.57;;;27.53;;
4089;SDS011;2059;48.538;12.146;2022-10-31T14:01:15;34.33;;;26.20;;
4089;SDS011;2059;48.538;12.146;2022-10-31T14:06:20;28.60;;;23.83;;
4089;SDS011;2059;48.538;12.146;2022-10-31T14:11:26;28.33;;;21.93;;
4089;SDS011;2059;48.538;12.146;2022-10-31T14:16:29;40.07;;;27.67;;
4089;SDS011;2059;48.538;12.146;2022-10-31T14:21:36;26.03;;;22.93;;
4089;SDS011;2059;48.538;12.146;2022-10-31T14:26:50;24.57;;;21.53;;
4089;SDS011;2059;48.538;12.146;2022-10-31T14:31:54;23.20;;;19.73;;
4089;SDS011;2059;48.538;12.146;2022-10-31T14:42:51;59.13;;;34.60;;
4089;SDS011;2059;48.538;12.146;2022-10-31T14:48:15;48.37;;;37.63;;
4089;SDS011;2059;48.538;12.146;2022-10-31T14:53:30;43.50;;;32.57;;
4089;SDS011;2059;48.538;12.146;2022-10-31T14:58:37;36.20;;;31.00;;
4089;SDS011;2059;48.538;12.146;2022-10-31T15:03:42;25.03;;;22.33;;
4089;SDS011;2059;48.538;12.146;2022-10-31T15:08:47;27.80;;;19.10;;
4089;SDS011;2059;48.538;12.146;2022-10-31T15:13:52;24.67;;;18.83;;
4089;SDS011;2059;48.538;12.146;2022-10-31T15:18:56;24.13;;;20.70;;
4089;SDS011;2059;48.538;12.146;2022-10-31T15:24:01;23.73;;;19.70;;
4089;SDS011;2059;48.538;12.146;2022-10-31T15:29:05;28.27;;;20.30;;
4089;SDS011;2059;48.538;12.146;2022-10-31T15:34:14;28.00;;;24.27;;
4089;SDS011;2059;48.538;12.146;2022-10-31T15:39:20;24.20;;;19.87;;
4089;SDS011;2059;48.538;12.146;2022-10-31T15:44:24;21.07;;;18.87;;
4089;SDS011;2059;48.538;12.146;2022-10-31T15:49:32;24.20;;;20.53;;
4089;SDS011;2059;48.538;12.146;2022-10-31T15:54:41;29.07;;;19.13;;
4089;SDS011;2059;48.538;12.146;2022-10-31T15:59:48;23.80;;;19.27;;
4089;SDS011;2059;48.538;12.146;2022-10-31T16:04:52;23.83;;;19.90;;
4089;SDS011;2059;48.538;12.146;2022-10-31T16:09:56;25.87;;;20.50;;
4089;SDS011;2059;48.538;12.146;2022-10-31T16:15:01;25.37;;;22.57;;
4089;SDS011;2059;48.538;12.146;2022-10-31T16:20:04;29.23;;;26.03;;
4089;SDS011;2059;48.538;12.146;2022-10-31T16:25:09;30.50;;;25.07;;
4089;SDS011;2059;48.538;12.146;2022-10-31T16:30:28;28.10;;;24.93;;
4089;SDS011;2059;48.538;12.146;2022-10-31T16:35:37;32.90;;;26.50;;
4089;SDS011;2059;48.538;12.146;2022-10-31T16:40:40;31.43;;;26.23;;
4089;SDS011;2059;48.538;12.146;2022-10-31T16:45:44;34.00;;;24.67;;
4089;SDS011;2059;48.538;12.146;2022-10-31T16:50:47;28.77;;;22.47;;
4089;SDS011;2059;48.538;12.146;2022-10-31T16:55:52;27.67;;;23.10;;
4089;SDS011;2059;48.538;12.146;2022-10-31T17:00:58;28.77;;;24.03;;
4089;SDS011;2059;48.538;12.146;2022-10-31T17:06:00;33.63;;;22.53;;
4089;SDS011;2059;48.538;12.146;2022-10-31T17:11:02;25.07;;;21.63;;
4089;SDS011;2059;48.538;12.146;2022-10-31T17:16:06;28.40;;;23.00;;
4089;SDS011;2059;48.538;12.146;2022-10-31T17:21:09;31.43;;;26.10;;
4089;SDS011;2059;48.538;12.146;2022-10-31T17:26:16;31.00;;;25.13;;
4089;SDS011;2059;48.538;12.146;2022-10-31T17:31:23;28.97;;;25.53;;
4089;SDS011;2059;48.538;12.146;2022-10-31T17:36:28;27.30;;;23.67;;
4089;SDS011;2059;48.538;12.146;2022-10-31T17:41:30;28.50;;;24.30;;
4089;SDS011;2059;48.538;12.146;2022-10-31T17:46:33;27.60;;;24.70;;
4089;SDS011;2059;48.538;12.146;2022-10-31T17:51:35;29.90;;;24.90;;
4089;SDS011;2059;48.538;12.146;2022-10-31T17:56:37;27.93;;;24.80;;
4089;SDS011;2059;48.538;12.146;2022-10-31T18:01:40;47.23;;;29.60;;
4089;SDS011;2059;48.538;12.146;2022-10-31T18:06:42;40.40;;;30.33;;
4089;SDS011;2059;48.538;12.146;2022-10-31T18:11:44;76.57;;;41.20;;
4089;SDS011;2059;48.538;12.146;2022-10-31T18:16:47;50.97;;;32.43;;
4089;SDS011;2059;48.538;12.146;2022-10-31T18:21:50;36.20;;;27.20;;
4089;SDS011;2059;48.538;12.146;2022-10-31T18:26:51;37.83;;;26.53;;
4089;SDS011;2059;48.538;12.146;2022-10-31T18:31:55;40.80;;;28.67;;
4089;SDS011;2059;48.538;12.146;2022-10-31T18:36:57;62.70;;;35.33;;
4089;SDS011;2059;48.538;12.146;2022-10-31T18:41:58;77.90;;;37.13;;
4089;SDS011;2059;48.538;12.146;2022-10-31T18:47:02;103.53;;;39.13;;
4089;SDS011;2059;48.538;12.146;2022-10-31T18:52:04;92.83;;;39.03;;
4089;SDS011;2059;48.538;12.146;2022-10-31T18:57:05;63.30;;;33.37;;
4089;SDS011;2059;48.538;12.146;2022-10-31T19:02:09;66.53;;;31.77;;
4089;SDS011;2059;48.538;12.146;2022-10-31T19:07:13;73.67;;;36.00;;
4089;SDS011;2059;48.538;12.146;2022-10-31T19:12:15;83.87;;;33.47;;
4089;SDS011;2059;48.538;12.146;2022-10-31T19:17:19;235.40;;;43.10;;
4089;SDS011;2059;48.538;12.146;2022-10-31T19:22:21;80.73;;;36.37;;
4089;SDS011;2059;48.538;12.146;2022-10-31T19:27:22;80.93;;;36.40;;
4089;SDS011;2059;48.538;12.146;2022-10-31T19:32:27;82.87;;;38.40;;
4089;SDS011;2059;48.538;12.146;2022-10-31T19:37:30;75.63;;;36.53;;
4089;SDS011;2059;48.538;12.146;2022-10-31T19:42:32;92.60;;;40.23;;
4089;SDS011;2059;48.538;12.146;2022-10-31T19:47:35;107.03;;;42.00;;
4089;SDS011;2059;48.538;12.146;2022-10-31T19:52:37;116.80;;;41.27;;
4089;SDS011;2059;48.538;12.146;2022-10-31T19:57:39;95.77;;;38.63;;
4089;SDS011;2059;48.538;12.146;2022-10-31T20:02:42;88.53;;;37.67;;
4089;SDS011;2059;48.538;12.146;2022-10-31T20:07:44;73.30;;;36.43;;
4089;SDS011;2059;48.538;12.146;2022-10-31T20:12:46;96.13;;;37.17;;
4089;SDS011;2059;48.538;12.146;2022-10-31T20:17:49;70.67;;;36.00;;
4089;SDS011;2059;48.538;12.146;2022-10-31T20:22:51;85.77;;;35.97;;
4089;SDS011;2059;48.538;12.146;2022-10-31T20:27:53;75.57;;;36.60;;
4089;SDS011;2059;48.538;12.146;2022-10-31T20:32:56;94.30;;;33.70;;
4089;SDS011;2059;48.538;12.146;2022-10-31T20:37:58;60.10;;;33.20;;
4089;SDS011;2059;48.538;12.146;2022-10-31T20:43:00;53.37;;;30.80;;
4089;SDS011;2059;48.538;12.146;2022-10-31T20:48:04;56.97;;;30.60;;
4089;SDS011;2059;48.538;12.146;2022-10-31T20:53:06;57.33;;;31.00;;
4089;SDS011;2059;48.538;12.146;2022-10-31T20:58:08;72.13;;;33.33;;
4089;SDS011;2059;48.538;12.146;2022-10-31T21:03:11;48.70;;;28.07;;
4089;SDS011;2059;48.538;12.146;2022-10-31T21:08:13;68.57;;;29.30;;
4089;SDS011;2059;48.538;12.146;2022-10-31T21:13:15;61.77;;;29.03;;
4089;SDS011;2059;48.538;12.146;2022-10-31T21:18:19;53.50;;;31.33;;
4089;SDS011;2059;48.538;12.146;2022-10-31T21:23:21;61.03;;;28.47;;
4089;SDS011;2059;48.538;12.146;2022-10-31T21:28:23;50.23;;;27.17;;
4089;SDS011;2059;48.538;12.146;2022-10-31T21:33:26;40.97;;;24.93;;
4089;SDS011;2059;48.538;12.146;2022-10-31T21:38:28;40.50;;;26.93;;
4089;SDS011;2059;48.538;12.146;2022-10-31T21:43:30;68.43;;;33.80;;
4089;SDS011;2059;48.538;12.146;2022-10-31T21:48:36;47.23;;;30.47;;
4089;SDS011;2059;48.538;12.146;2022-10-31T21:53:41;41.23;;;29.73;;
4089;SDS011;2059;48.538;12.146;2022-10-31T21:59:00;63.80;;;34.77;;
4089;SDS011;2059;48.538;12.146;2022-10-31T22:04:05;39.73;;;28.70;;
4089;SDS011;2059;48.538;12.146;2022-10-31T22:09:08;72.73;;;36.23;;
4089;SDS011;2059;48.538;12.146;2022-10-31T22:14:12;42.37;;;27.40;;
4089;SDS011;2059;48.538;12.146;2022-10-31T22:19:16;29.40;;;24.00;;
4089;SDS011;2059;48.538;12.146;2022-10-31T22:24:18;32.07;;;26.03;;
4089;SDS011;2059;48.538;12.146;2022-10-31T22:29:20;57.10;;;31.20;;
4089;SDS011;2059;48.538;12.146;2022-10-31T22:34:23;49.10;;;24.07;;
4089;SDS011;2059;48.538;12.146;2022-10-31T22:39:25;26.23;;;22.23;;
4089;SDS011;2059;48.538;12.146;2022-10-31T22:44:27;34.17;;;23.17;;
4089;SDS011;2059;48.538;12.146;2022-10-31T22:49:31;30.33;;;23.00;;
4089;SDS011;2059;48.538;12.146;2022-10-31T22:54:32;26.77;;;23.60;;
4089;SDS011;2059;48.538;12.146;2022-10-31T22:59:34;48.63;;;28.13;;
4089;SDS011;2059;48.538;12.146;2022-10-31T23:04:37;40.07;;;28.53;;
4089;SDS011;2059;48.538;12.146;2022-10-31T23:09:39;35.03;;;26.37;;
4089;SDS011;2059;48.538;12.146;2022-10-31T23:14:41;43.87;;;27.60;;
4089;SDS011;2059;48.538;12.146;2022-10-31T23:19:44;43.60;;;26.83;;
4089;SDS011;2059;48.538;12.146;2022-10-31T23:24:46;28.70;;;24.60;;
4089;SDS011;2059;48.538;12.146;2022-10-31T23:29:52;31.20;;;23.60;;
4089;SDS011;2059;48.538;12.146;2022-10-31T23:34:57;32.07;;;22.27;;
4089;SDS011;2059;48.538;12.146;2022-10-31T23:40:00;26.10;;;20.80;;
4089;SDS011;2059;48.538;12.146;2022-10-31T23:45:02;26.87;;;21.50;;
4089;SDS011;2059;48.538;12.146;2022-10-31T23:50:06;27.53;;;21.90;;
4089;SDS011;2059;48.538;12.146;2022-10-31T23:55:08;35.47;;;21.83;;
